Time;durP1;ratioP1;P1;durP2;ratioP2;P2;SDS_P1;SDS_P2;PMS_P1;PMS_P2;Temp;Humidity;BMP_temperature;BMP_pressure;BME280_temperature;BME280_humidity;BME280_pressure;Samples;Min_cycle;Max_cycle;Signal;HPM_P1;HPM_P2
2022/07/23 00:00:15;;;;;;;2.17;0.50;;;16.00;99.90;;;;;;4997341;28;20741;-80
2022/07/23 00:02:41;;;;;;;1.80;0.40;;;16.00;99.90;;;;;;4998558;28;20300;-79
2022/07/23 00:05:07;;;;;;;1.45;0.38;;;16.00;99.90;;;;;;4998276;28;20718;-81
2022/07/23 00:07:33;;;;;;;1.45;0.40;;;16.00;99.90;;;;;;4996816;28;20132;-81
2022/07/23 00:09:58;;;;;;;1.10;0.30;;;15.90;99.90;;;;;;4980976;28;20021;-80
2022/07/23 00:12:24;;;;;;;3.83;0.40;;;15.90;99.90;;;;;;4989465;28;20053;-81
2022/07/23 00:14:50;;;;;;;1.52;0.50;;;15.80;99.90;;;;;;4994721;28;20026;-80
2022/07/23 00:17:16;;;;;;;1.33;0.43;;;15.80;99.90;;;;;;4995592;28;20108;-80
2022/07/23 00:19:41;;;;;;;0.98;0.40;;;15.80;99.90;;;;;;4981362;28;20034;-80
2022/07/23 00:22:07;;;;;;;1.67;0.70;;;15.70;99.90;;;;;;4988219;28;20353;-80
2022/07/23 00:24:33;;;;;;;1.55;0.52;;;15.70;99.90;;;;;;4996500;28;20107;-81
2022/07/23 00:26:58;;;;;;;2.25;0.40;;;15.60;99.90;;;;;;4989466;28;20030;-81
2022/07/23 00:29:24;;;;;;;0.93;0.40;;;15.60;99.90;;;;;;4988654;28;20033;-81
2022/07/23 00:31:49;;;;;;;1.60;0.50;;;15.50;99.90;;;;;;5010623;28;20378;-80
2022/07/23 00:34:15;;;;;;;1.00;0.40;;;15.40;99.90;;;;;;4981006;28;20036;-80
2022/07/23 00:36:41;;;;;;;1.10;0.40;;;15.40;99.90;;;;;;4994325;28;20018;-80
2022/07/23 00:39:06;;;;;;;1.00;0.50;;;15.30;99.90;;;;;;4995802;28;20033;-81
2022/07/23 00:41:32;;;;;;;0.93;0.45;;;15.30;99.90;;;;;;4995221;28;20030;-80
2022/07/23 00:44:28;;;;;;;1.50;0.50;;;15.30;99.90;;;;;;5011053;28;20037;-81
2022/07/23 00:46:56;;;;;;;1.92;0.50;;;15.30;99.90;;;;;;4986189;28;20069;-79
2022/07/23 00:49:27;;;;;;;2.10;0.60;;;15.30;99.90;;;;;;4997899;28;20026;-80
2022/07/23 00:51:53;;;;;;;1.92;0.60;;;15.30;99.90;;;;;;4995171;28;20025;-80
2022/07/23 00:54:21;;;;;;;2.13;0.70;;;15.20;99.90;;;;;;4978087;28;20088;-80
2022/07/23 00:56:47;;;;;;;1.98;0.80;;;15.20;99.90;;;;;;4988479;28;20030;-79
2022/07/23 00:59:13;;;;;;;2.58;0.80;;;15.10;99.90;;;;;;5011022;28;20018;-80
2022/07/23 01:01:40;;;;;;;2.17;0.68;;;15.10;99.90;;;;;;4994987;28;20575;-81
2022/07/23 01:04:06;;;;;;;1.67;0.47;;;15.10;99.90;;;;;;4987709;28;20042;-81
2022/07/23 01:06:36;;;;;;;1.55;0.73;;;15.00;99.90;;;;;;4994728;28;20470;-79
2022/07/23 01:09:03;;;;;;;1.52;0.68;;;15.00;99.90;;;;;;5010958;28;20055;-80
2022/07/23 01:11:30;;;;;;;1.70;0.90;;;15.00;99.90;;;;;;4994959;28;20038;-81
2022/07/23 01:13:55;;;;;;;1.70;0.65;;;15.00;99.90;;;;;;4978044;28;20022;-81
2022/07/23 01:16:21;;;;;;;1.60;0.98;;;15.00;99.90;;;;;;4978395;28;20069;-81
2022/07/23 01:18:47;;;;;;;2.30;1.20;;;14.90;99.90;;;;;;4995748;28;20443;-82
2022/07/23 01:21:13;;;;;;;2.55;1.00;;;14.90;99.90;;;;;;4974205;28;20034;-80
2022/07/23 01:23:39;;;;;;;2.40;1.00;;;14.80;99.90;;;;;;4986237;28;20030;-80
2022/07/23 01:26:05;;;;;;;2.22;1.05;;;14.80;99.90;;;;;;4989839;28;20050;-78
2022/07/23 01:28:31;;;;;;;1.75;1.00;;;14.70;99.90;;;;;;4994580;28;20117;-80
2022/07/23 01:30:58;;;;;;;2.05;1.20;;;14.70;99.90;;;;;;4983358;28;20026;-80
2022/07/23 01:33:24;;;;;;;2.60;1.67;;;14.60;99.90;;;;;;4992998;28;22038;-79
2022/07/23 01:35:50;;;;;;;2.70;0.98;;;14.60;99.90;;;;;;4994645;28;20385;-79
2022/07/23 01:38:20;;;;;;;2.22;0.93;;;14.60;99.90;;;;;;4989460;28;20042;-78
2022/07/23 01:40:46;;;;;;;2.00;0.77;;;14.60;99.90;;;;;;4999178;28;20501;-79
2022/07/23 01:43:12;;;;;;;1.70;0.80;;;14.60;99.90;;;;;;4994602;28;20080;-79
2022/07/23 01:45:37;;;;;;;2.05;1.10;;;14.60;99.90;;;;;;4983896;28;20030;-80
2022/07/23 01:48:03;;;;;;;2.55;1.10;;;14.60;99.90;;;;;;5000108;28;20038;-81
2022/07/23 01:50:30;;;;;;;1.88;0.93;;;14.50;99.90;;;;;;4995082;28;22058;-81
2022/07/23 01:53:19;;;;;;;2.05;0.85;;;14.50;99.90;;;;;;4994060;28;20041;-81
2022/07/23 01:55:45;;;;;;;2.65;1.00;;;14.50;99.90;;;;;;4999884;28;20026;-80
2022/07/23 01:58:11;;;;;;;2.28;0.98;;;14.40;99.90;;;;;;4982991;28;20073;-80
2022/07/23 02:00:37;;;;;;;2.30;1.05;;;14.40;99.90;;;;;;4993645;28;20038;-80
2022/07/23 02:03:02;;;;;;;1.80;0.70;;;14.30;99.90;;;;;;4982441;28;20046;-80
2022/07/23 02:05:29;;;;;;;2.75;1.10;;;14.30;99.90;;;;;;4999806;28;20444;-80
2022/07/23 02:07:55;;;;;;;1.65;0.80;;;14.20;99.90;;;;;;4984011;28;20045;-80
2022/07/23 02:10:22;;;;;;;1.88;0.50;;;14.20;99.90;;;;;;4977436;28;20563;-80
2022/07/23 02:12:47;;;;;;;1.30;0.63;;;14.20;99.90;;;;;;4977802;28;20026;-80
2022/07/23 02:15:13;;;;;;;1.38;0.68;;;14.10;99.90;;;;;;4999317;28;20033;-79
2022/07/23 02:17:39;;;;;;;2.60;0.98;;;14.10;99.90;;;;;;4976896;28;20045;-79
2022/07/23 02:20:07;;;;;;;1.80;1.02;;;14.00;99.90;;;;;;5014946;28;20021;-79
2022/07/23 02:22:33;;;;;;;2.28;0.90;;;14.00;99.90;;;;;;4991944;28;20032;-79
2022/07/23 02:24:59;;;;;;;1.90;0.80;;;14.00;99.90;;;;;;5007525;28;20030;-80
2022/07/23 02:27:24;;;;;;;1.42;0.70;;;14.00;99.90;;;;;;4977126;28;20041;-79
2022/07/23 02:29:51;;;;;;;1.80;0.80;;;14.00;99.90;;;;;;4996741;28;20029;-79
2022/07/23 02:32:17;;;;;;;3.00;0.80;;;14.00;99.90;;;;;;4998941;28;20032;-81
2022/07/23 02:34:43;;;;;;;1.75;0.75;;;13.90;99.90;;;;;;4981260;28;20393;-79
2022/07/23 02:37:09;;;;;;;1.95;0.98;;;13.80;99.90;;;;;;4990173;28;20036;-79
2022/07/23 02:39:36;;;;;;;1.92;1.25;;;13.90;99.90;;;;;;4991014;28;20051;-80
2022/07/23 02:42:02;;;;;;;1.80;1.00;;;13.80;99.90;;;;;;4990088;28;20033;-80
2022/07/23 02:44:29;;;;;;;1.60;0.80;;;13.80;99.90;;;;;;5002245;28;20045;-81
2022/07/23 02:46:55;;;;;;;1.65;0.73;;;13.80;99.90;;;;;;4995897;28;20296;-80
2022/07/23 02:49:21;;;;;;;2.38;1.17;;;13.70;99.90;;;;;;4996648;28;20026;-79
2022/07/23 02:51:49;;;;;;;2.30;1.20;;;13.70;99.90;;;;;;4981315;28;20033;-80
2022/07/23 02:54:15;;;;;;;3.08;1.17;;;13.60;99.90;;;;;;5003746;28;20080;-80
2022/07/23 02:56:41;;;;;;;2.75;1.10;;;13.60;99.90;;;;;;4998092;28;20125;-79
2022/07/23 02:59:07;;;;;;;1.73;1.10;;;13.60;99.90;;;;;;4979401;28;20037;-80
2022/07/23 03:01:32;;;;;;;2.15;0.95;;;13.60;99.90;;;;;;4975485;28;22231;-78
2022/07/23 03:03:58;;;;;;;3.15;1.02;;;13.50;99.90;;;;;;4992796;28;20092;-79
2022/07/23 03:06:24;;;;;;;1.80;1.10;;;13.50;99.90;;;;;;5004069;28;20021;-80
2022/07/23 03:08:50;;;;;;;1.85;1.13;;;13.50;99.90;;;;;;4997581;28;20136;-79
2022/07/23 03:11:15;;;;;;;2.30;1.00;;;13.40;99.90;;;;;;5013860;28;20033;-79
2022/07/23 03:13:41;;;;;;;3.33;1.15;;;13.40;99.90;;;;;;4982320;28;20044;-79
2022/07/23 03:16:07;;;;;;;1.85;1.02;;;13.40;99.90;;;;;;4990952;28;20201;-79
2022/07/23 03:18:35;;;;;;;2.75;1.35;;;13.40;99.90;;;;;;4983302;28;20184;-79
2022/07/23 03:21:01;;;;;;;1.80;1.20;;;13.40;99.90;;;;;;5013894;28;20453;-79
2022/07/23 03:23:26;;;;;;;1.90;0.93;;;13.40;99.90;;;;;;4992519;28;20042;-79
2022/07/23 03:25:52;;;;;;;2.45;1.42;;;13.30;99.90;;;;;;4997729;28;20108;-80
2022/07/23 03:28:18;;;;;;;2.42;1.30;;;13.30;99.90;;;;;;4981916;28;20108;-79
2022/07/23 03:30:46;;;;;;;2.58;1.45;;;13.30;99.90;;;;;;4986392;28;20030;-79
2022/07/23 03:33:13;;;;;;;4.05;1.10;;;13.30;99.90;;;;;;4998542;28;20095;-81
2022/07/23 03:35:38;;;;;;;1.80;1.30;;;13.30;99.90;;;;;;4982035;28;20030;-79
2022/07/23 03:38:14;;;;;;;1.80;0.68;;;13.20;99.90;;;;;;4998453;28;20036;-80
2022/07/23 03:40:40;;;;;;;1.75;0.98;;;13.10;99.90;;;;;;4998570;28;20026;-80
2022/07/23 03:43:06;;;;;;;2.33;0.90;;;13.10;99.90;;;;;;4986262;28;20017;-79
2022/07/23 03:45:32;;;;;;;2.70;1.30;;;13.10;99.90;;;;;;4976412;28;20037;-79
2022/07/23 03:47:58;;;;;;;2.33;1.15;;;13.10;99.90;;;;;;4997776;28;20121;-79
2022/07/23 03:50:24;;;;;;;2.38;1.10;;;13.10;99.90;;;;;;4975282;28;20512;-80
2022/07/23 03:52:51;;;;;;;2.35;1.20;;;13.10;99.90;;;;;;4997082;28;20073;-79
2022/07/23 03:55:16;;;;;;;2.13;1.02;;;13.10;99.90;;;;;;4991054;28;20120;-81
2022/07/23 03:57:43;;;;;;;2.92;1.17;;;13.10;99.90;;;;;;4975936;28;20038;-80
2022/07/23 04:00:10;;;;;;;2.33;1.25;;;13.10;99.90;;;;;;4997998;28;20457;-80
2022/07/23 04:02:39;;;;;;;;;;;13.10;99.90;;;;;;5007434;28;20042;-78
2022/07/23 04:05:05;;;;;;;1.70;0.82;;;13.10;99.90;;;;;;4969105;28;19924;-80
2022/07/23 04:07:31;;;;;;;1.50;0.80;;;13.10;99.90;;;;;;4974418;28;20092;-80
2022/07/23 04:09:57;;;;;;;2.70;1.20;;;13.00;99.90;;;;;;4998105;28;20046;-79
2022/07/23 04:12:24;;;;;;;1.55;0.73;;;13.00;99.90;;;;;;4980328;28;20245;-81
2022/07/23 04:14:49;;;;;;;2.45;1.13;;;13.00;99.90;;;;;;4996505;28;20030;-80
2022/07/23 04:17:15;;;;;;;1.70;0.70;;;13.00;99.90;;;;;;5007247;28;20379;-79
2022/07/23 04:19:43;;;;;;;1.88;1.15;;;13.10;99.90;;;;;;4991234;28;20037;-79
2022/07/23 04:22:10;;;;;;;4.70;1.73;;;13.20;99.90;;;;;;5012726;28;20426;-79
2022/07/23 04:24:37;;;;;;;3.05;1.33;;;13.20;99.90;;;;;;4997434;28;20030;-79
2022/07/23 04:27:03;;;;;;;2.90;1.08;;;13.20;99.90;;;;;;4996137;28;20470;-80
2022/07/23 04:29:30;;;;;;;2.30;1.20;;;13.20;99.90;;;;;;5013436;28;20038;-79
2022/07/23 04:31:57;;;;;;;2.10;0.88;;;13.30;99.90;;;;;;4981022;28;20030;-78
2022/07/23 04:34:22;;;;;;;1.70;1.05;;;13.30;99.90;;;;;;4997863;28;20037;-79
2022/07/23 04:36:48;;;;;;;1.77;0.90;;;13.30;99.90;;;;;;4980014;28;20030;-79
2022/07/23 04:39:14;;;;;;;2.20;1.10;;;13.40;99.90;;;;;;4991063;28;20124;-79
2022/07/23 04:41:41;;;;;;;1.60;0.73;;;13.50;99.90;;;;;;4980710;28;20382;-80
2022/07/23 04:44:06;;;;;;;2.22;0.95;;;13.50;99.90;;;;;;4996603;28;20037;-80
2022/07/23 04:46:33;;;;;;;1.98;1.17;;;13.60;99.90;;;;;;4974481;28;21934;-79
2022/07/23 04:48:58;;;;;;;2.00;1.33;;;13.60;99.90;;;;;;4979396;28;20041;-79
2022/07/23 04:51:26;;;;;;;1.92;1.33;;;13.70;99.90;;;;;;4996919;28;20034;-79
2022/07/23 04:53:51;;;;;;;2.65;1.42;;;13.80;99.90;;;;;;4996516;28;20037;-81
2022/07/23 04:56:17;;;;;;;3.25;1.13;;;13.90;99.90;;;;;;4996713;28;20137;-80
2022/07/23 04:58:43;;;;;;;1.73;1.02;;;14.10;99.90;;;;;;4995841;28;20045;-79
2022/07/23 05:01:09;;;;;;;1.80;1.10;;;14.20;99.90;;;;;;4984280;28;20037;-80
2022/07/23 05:03:36;;;;;;;2.55;1.48;;;14.20;99.90;;;;;;4992779;28;20026;-79
2022/07/23 05:06:03;;;;;;;2.05;1.27;;;14.30;99.90;;;;;;4986116;28;20052;-78
2022/07/23 05:08:29;;;;;;;2.28;1.25;;;14.30;99.90;;;;;;5004893;28;20112;-79
2022/07/23 05:10:56;;;;;;;3.28;1.40;;;14.30;99.90;;;;;;4987752;28;20026;-78
2022/07/23 05:13:22;;;;;;;2.15;1.52;;;14.40;99.90;;;;;;5002385;28;20037;-79
2022/07/23 05:15:50;;;;;;;2.17;1.25;;;14.70;99.90;;;;;;4997580;28;20375;-80
2022/07/23 05:18:16;;;;;;;3.00;1.30;;;14.80;99.90;;;;;;5007738;28;20048;-79
2022/07/23 05:20:42;;;;;;;2.10;1.08;;;14.80;99.90;;;;;;4987881;28;20040;-79
2022/07/23 05:23:09;;;;;;;2.35;1.15;;;14.90;99.90;;;;;;5018115;28;20087;-80
2022/07/23 05:25:35;;;;;;;2.92;1.08;;;14.90;99.90;;;;;;4988142;28;20022;-80
2022/07/23 05:28:01;;;;;;;3.38;0.70;;;14.90;99.90;;;;;;4986174;28;20030;-79
2022/07/23 05:30:27;;;;;;;2.13;0.60;;;14.90;99.90;;;;;;4980026;28;20026;-79
2022/07/23 05:32:58;;;;;;;2.47;0.90;;;15.00;99.90;;;;;;4996239;28;20027;-78
2022/07/23 05:35:24;;;;;;;2.25;1.50;;;15.00;99.90;;;;;;5013783;28;20038;-79
2022/07/23 05:38:04;;;;;;;2.25;0.85;;;15.00;99.90;;;;;;4995786;28;20073;-80
2022/07/23 05:40:31;;;;;;;3.40;1.10;;;15.20;99.90;;;;;;4987807;28;20033;-79
2022/07/23 05:42:57;;;;;;;1.65;1.05;;;15.20;99.90;;;;;;4994978;28;20033;-80
2022/07/23 05:45:23;;;;;;;1.25;0.60;;;15.30;99.90;;;;;;4996470;28;20072;-80
2022/07/23 05:47:50;;;;;;;2.20;0.77;;;15.40;99.90;;;;;;4991608;28;20034;-79
2022/07/23 05:50:24;;;;;;;3.78;1.00;;;15.50;99.90;;;;;;4982119;28;20025;-79
2022/07/23 05:52:57;;;;;;;3.60;1.35;;;15.60;99.90;;;;;;5001430;28;20136;-80
2022/07/23 05:55:55;;;;;;;2.25;0.60;;;15.80;99.90;;;;;;4968120;28;20038;-80
2022/07/23 05:58:21;;;;;;;5.32;0.60;;;16.00;99.90;;;;;;4959617;28;20038;-76
2022/07/23 06:00:47;;;;;;;2.97;0.70;;;16.10;99.90;;;;;;4965030;28;20033;-81
2022/07/23 06:03:12;;;;;;;3.35;0.90;;;16.20;99.90;;;;;;4978524;28;20077;-77
2022/07/23 06:05:38;;;;;;;2.85;1.00;;;16.10;99.90;;;;;;4980577;28;20030;-80
2022/07/23 06:08:05;;;;;;;2.40;1.00;;;16.20;99.90;;;;;;4959688;28;20054;-80
2022/07/23 06:10:30;;;;;;;3.70;0.80;;;16.40;99.90;;;;;;4962361;28;20029;-80
2022/07/23 06:12:58;;;;;;;7.22;2.03;;;16.50;99.90;;;;;;4978703;28;20043;-79
2022/07/23 06:15:24;;;;;;;4.97;1.50;;;16.40;99.90;;;;;;4959429;28;20572;-79
2022/07/23 06:17:50;;;;;;;2.83;1.10;;;16.50;99.90;;;;;;4946008;28;20042;-80
2022/07/23 06:20:16;;;;;;;1.75;0.70;;;16.60;99.90;;;;;;4978413;28;20031;-79
2022/07/23 06:22:41;;;;;;;2.63;0.60;;;17.10;99.90;;;;;;4945776;28;20053;-80
2022/07/23 06:25:08;;;;;;;2.28;0.85;;;17.40;99.90;;;;;;4961722;28;20114;-80
2022/07/23 06:27:33;;;;;;;1.55;0.60;;;17.70;99.90;;;;;;4976085;28;20057;-81
2022/07/23 06:29:59;;;;;;;1.63;0.50;;;17.90;99.90;;;;;;4958174;28;20119;-80
2022/07/23 06:32:24;;;;;;;1.73;0.60;;;18.10;99.90;;;;;;4996211;28;20042;-81
2022/07/23 06:34:50;;;;;;;1.45;0.50;;;18.10;99.90;;;;;;4999255;28;20148;-81
2022/07/23 06:37:16;;;;;;;1.45;0.47;;;18.30;99.90;;;;;;4996916;28;20034;-80
2022/07/23 06:39:42;;;;;;;1.23;0.50;;;18.50;99.90;;;;;;4991642;28;20034;-80
2022/07/23 06:42:07;;;;;;;1.33;0.43;;;18.60;99.90;;;;;;4980798;28;20036;-80
2022/07/23 06:44:43;;;;;;;2.25;0.50;;;18.70;99.90;;;;;;4997172;28;20091;-81
2022/07/23 06:47:09;;;;;;;1.27;0.60;;;18.40;99.90;;;;;;4977642;28;20034;-80
2022/07/23 06:49:35;;;;;;;1.58;0.43;;;18.20;99.90;;;;;;4995473;28;20379;-80
2022/07/23 06:52:00;;;;;;;1.45;0.60;;;18.30;99.90;;;;;;4979824;28;20026;-79
2022/07/23 06:54:26;;;;;;;1.98;0.60;;;18.00;99.90;;;;;;4980154;28;20344;-78
2022/07/23 06:56:51;;;;;;;1.38;0.50;;;18.00;99.90;;;;;;4996004;28;20076;-80
2022/07/23 06:59:17;;;;;;;1.63;0.50;;;18.30;99.90;;;;;;4999036;28;20136;-79
2022/07/23 07:01:43;;;;;;;1.92;0.50;;;18.30;99.90;;;;;;4998413;28;20022;-80
2022/07/23 07:04:08;;;;;;;2.83;0.52;;;18.60;99.90;;;;;;5013117;28;20080;-80
2022/07/23 07:06:34;;;;;;;1.00;0.32;;;19.00;99.90;;;;;;4998023;28;20040;-80
2022/07/23 07:08:59;;;;;;;2.40;0.50;;;19.50;99.90;;;;;;4974862;28;20046;-80
2022/07/23 07:11:25;;;;;;;1.65;0.70;;;19.00;99.90;;;;;;4991001;28;20338;-80
2022/07/23 07:13:51;;;;;;;1.20;0.40;;;18.90;99.90;;;;;;5007092;28;20100;-80
2022/07/23 07:16:17;;;;;;;1.48;0.50;;;19.20;99.90;;;;;;4992607;28;20061;-80
2022/07/23 07:18:43;;;;;;;2.70;0.40;;;18.90;99.90;;;;;;4994430;28;20129;-80
2022/07/23 07:21:08;;;;;;;1.35;0.40;;;18.90;99.90;;;;;;4991733;28;20453;-80
2022/07/23 07:23:34;;;;;;;2.05;0.40;;;18.80;99.90;;;;;;4990732;28;20388;-79
2022/07/23 07:26:00;;;;;;;2.35;0.30;;;19.10;99.90;;;;;;4991655;28;20030;-80
2022/07/23 07:28:25;;;;;;;1.55;0.50;;;19.40;99.90;;;;;;4992563;28;20038;-80
2022/07/23 07:30:51;;;;;;;1.83;0.70;;;19.20;99.90;;;;;;4991493;28;20029;-80
2022/07/23 07:33:17;;;;;;;2.22;0.55;;;19.20;99.90;;;;;;5002003;28;20038;-80
2022/07/23 07:35:42;;;;;;;1.02;0.50;;;19.30;99.90;;;;;;4990820;28;20026;-80
2022/07/23 07:38:08;;;;;;;1.27;0.40;;;19.00;99.90;;;;;;4990430;28;20549;-80
2022/07/23 07:40:34;;;;;;;2.17;0.50;;;19.20;99.90;;;;;;4991224;28;20041;-80
2022/07/23 07:43:01;;;;;;;2.10;0.50;;;19.40;99.90;;;;;;4992975;28;20034;-80
2022/07/23 07:45:27;;;;;;;0.85;0.30;;;19.20;99.90;;;;;;5006059;28;20064;-80
2022/07/23 07:47:52;;;;;;;1.15;0.50;;;19.60;99.90;;;;;;5005011;28;20037;-80
2022/07/23 07:50:19;;;;;;;3.95;0.40;;;19.40;99.90;;;;;;4988215;28;20160;-80
2022/07/23 07:52:45;;;;;;;2.33;0.50;;;19.40;99.90;;;;;;4988517;28;20413;-80
2022/07/23 07:55:11;;;;;;;2.03;0.52;;;19.20;99.90;;;;;;4994612;28;20022;-79
2022/07/23 07:57:37;;;;;;;1.73;0.32;;;19.10;99.90;;;;;;4991567;28;20038;-80
2022/07/23 08:00:05;;;;;;;3.03;0.70;;;19.50;99.90;;;;;;5006425;28;20045;-80
2022/07/23 08:02:52;;;;;;;2.15;0.60;;;19.00;99.90;;;;;;4990326;28;20235;-80
2022/07/23 08:05:21;;;;;;;4.68;0.60;;;18.90;99.90;;;;;;4968422;28;20037;-79
2022/07/23 08:07:46;;;;;;;2.13;0.50;;;19.30;99.90;;;;;;5006581;28;20046;-79
2022/07/23 08:10:12;;;;;;;1.85;0.50;;;19.60;99.90;;;;;;4993491;28;22822;-80
2022/07/23 08:12:38;;;;;;;2.08;0.50;;;19.50;99.90;;;;;;4991591;28;22144;-80
2022/07/23 08:15:06;;;;;;;0.95;0.40;;;19.30;99.90;;;;;;4989891;28;20033;-80
2022/07/23 08:17:31;;;;;;;1.25;0.40;;;19.10;99.90;;;;;;4989699;28;20038;-80
2022/07/23 08:19:57;;;;;;;1.90;0.40;;;19.70;99.90;;;;;;4986948;28;20087;-80
2022/07/23 08:22:22;;;;;;;1.70;0.40;;;19.70;99.90;;;;;;4987905;28;20022;-80
2022/07/23 08:24:48;;;;;;;2.35;0.20;;;20.20;99.90;;;;;;4981147;28;20060;-80
2022/07/23 08:27:13;;;;;;;0.60;0.30;;;20.80;99.90;;;;;;4993111;28;20152;-80
2022/07/23 08:29:39;;;;;;;1.65;0.40;;;20.50;99.90;;;;;;4991923;28;20042;-84
2022/07/23 08:32:05;;;;;;;1.02;0.30;;;20.30;99.90;;;;;;5003706;28;20564;-81
2022/07/23 08:34:30;;;;;;;1.90;0.38;;;21.10;99.90;;;;;;4998314;28;20040;-81
2022/07/23 08:36:56;;;;;;;0.70;0.20;;;21.60;99.90;;;;;;4991522;28;20029;-80
2022/07/23 08:39:22;;;;;;;1.00;0.40;;;21.40;99.90;;;;;;4989393;28;20497;-82
2022/07/23 08:41:48;;;;;;;1.30;0.40;;;20.60;99.90;;;;;;4987654;28;20038;-81
2022/07/23 08:44:16;;;;;;;1.95;0.40;;;20.60;99.90;;;;;;4988403;28;20033;-81
2022/07/23 08:46:43;;;;;;;1.27;0.30;;;20.40;99.90;;;;;;5004127;28;20066;-81
2022/07/23 08:49:09;;;;;;;0.70;0.30;;;20.70;99.90;;;;;;5002877;28;20034;-81
2022/07/23 08:51:35;;;;;;;1.00;0.30;;;20.90;99.90;;;;;;4987193;28;20034;-82
2022/07/23 08:54:01;;;;;;;0.80;0.30;;;20.90;99.90;;;;;;4971309;28;20057;-81
2022/07/23 08:56:26;;;;;;;1.27;0.30;;;21.00;99.90;;;;;;4989784;28;20494;-81
2022/07/23 08:58:54;;;;;;;0.70;0.20;;;20.80;99.90;;;;;;4988946;28;20049;-82
2022/07/23 09:01:20;;;;;;;1.90;0.30;;;21.50;99.90;;;;;;4988641;28;20030;-81
2022/07/23 09:03:45;;;;;;;1.58;0.20;;;21.20;99.90;;;;;;4989974;28;20061;-81
2022/07/23 09:06:11;;;;;;;1.00;0.20;;;21.40;99.90;;;;;;4989084;28;20117;-81
2022/07/23 09:08:38;;;;;;;1.02;0.20;;;21.70;99.90;;;;;;4990283;28;20057;-81
2022/07/23 09:11:08;;;;;;;0.85;0.30;;;21.80;99.90;;;;;;4973602;28;20188;-81
2022/07/23 09:13:45;;;;;;;0.98;0.20;;;21.50;99.90;;;;;;4972947;28;20041;-81
2022/07/23 09:16:19;;;;;;;1.50;0.30;;;21.00;99.90;;;;;;4987617;28;20055;-81
2022/07/23 09:18:58;;;;;;;1.33;0.28;;;21.10;99.90;;;;;;4972505;28;20045;-80
2022/07/23 09:21:28;;;;;;;2.30;0.30;;;21.40;99.90;;;;;;4990733;28;20018;-81
2022/07/23 09:24:05;;;;;;;0.73;0.30;;;21.00;99.90;;;;;;5005750;28;20037;-81
2022/07/23 09:26:30;;;;;;;1.42;0.40;;;21.20;99.90;;;;;;4987519;28;20045;-81
2022/07/23 09:29:12;;;;;;;1.20;0.20;;;21.10;99.90;;;;;;4987704;28;20034;-81
2022/07/23 09:31:59;;;;;;;2.10;0.40;;;21.20;99.90;;;;;;4986978;28;20029;-83
2022/07/23 09:34:32;;;;;;;1.77;0.30;;;21.40;99.90;;;;;;4986031;28;20033;-82
2022/07/23 09:37:18;;;;;;;2.55;0.28;;;21.80;99.90;;;;;;4985961;28;20466;-81
2022/07/23 09:39:45;;;;;;;1.20;0.30;;;21.80;99.90;;;;;;4989236;28;20018;-81
2022/07/23 09:42:23;;;;;;;1.13;0.38;;;21.50;99.90;;;;;;4986748;28;20092;-81
2022/07/23 09:45:12;;;;;;;2.50;0.30;;;21.60;99.90;;;;;;4987811;28;20034;-82
2022/07/23 09:47:37;;;;;;;1.30;0.30;;;22.20;99.90;;;;;;5005315;28;20072;-82
2022/07/23 09:50:12;;;;;;;2.78;0.40;;;22.00;99.90;;;;;;4989993;28;20116;-82
2022/07/23 09:52:49;;;;;;;1.45;0.30;;;21.90;99.90;;;;;;4980329;28;20675;-81
2022/07/23 09:55:16;;;;;;;1.05;0.30;;;22.20;99.90;;;;;;5007214;28;20526;-81
2022/07/23 09:57:45;;;;;;;0.60;0.30;;;21.90;99.90;;;;;;4979250;28;20443;-81
2022/07/23 10:00:12;;;;;;;1.08;0.30;;;22.20;99.90;;;;;;4974269;28;20117;-81
2022/07/23 10:02:39;;;;;;;1.73;0.30;;;22.00;99.90;;;;;;4990060;28;20029;-81
2022/07/23 10:05:24;;;;;;;1.50;0.30;;;22.00;99.90;;;;;;4990549;28;20037;-82
2022/07/23 10:08:12;;;;;;;0.30;0.10;;;22.00;99.90;;;;;;4989278;28;20049;-82
2022/07/23 10:10:56;;;;;;;0.30;0.10;;;23.10;99.90;;;;;;4990966;28;20136;-82
2022/07/23 10:15:50;;;;;;;0.98;0.40;;;22.80;99.90;;;;;;4989620;28;20064;-83
2022/07/23 10:18:16;;;;;;;0.80;0.20;;;22.50;99.90;;;;;;5007073;28;20121;-82
2022/07/23 10:20:43;;;;;;;2.00;0.30;;;22.80;99.90;;;;;;4993084;28;20554;-82
2022/07/23 10:23:22;;;;;;;1.27;0.40;;;22.80;99.90;;;;;;4991476;28;20507;-82
2022/07/23 10:26:03;;;;;;;0.82;0.25;;;22.60;99.90;;;;;;5009031;28;20028;-82
2022/07/23 10:28:58;;;;;;;0.80;0.20;;;23.50;99.90;;;;;;5008948;28;20045;-83
2022/07/23 10:31:45;;;;;;;0.43;0.20;;;24.30;99.90;;;;;;4992723;28;20053;-83
2022/07/23 10:34:21;;;;;;;0.75;0.30;;;23.60;99.90;;;;;;4990043;28;22931;-81
2022/07/23 10:37:04;;;;;;;2.15;0.30;;;23.40;99.90;;;;;;4993488;28;20387;-82
2022/07/23 10:39:33;;;;;;;0.75;0.20;;;23.30;99.90;;;;;;4990877;28;20517;-84
2022/07/23 10:42:12;;;;;;;1.05;0.20;;;23.60;99.90;;;;;;5007905;28;20117;-82
2022/07/23 10:44:42;;;;;;;1.08;0.30;;;23.40;99.90;;;;;;4991159;28;20465;-83
2022/07/23 10:49:35;;;;;;;1.63;0.38;;;23.10;99.90;;;;;;4991797;28;20030;-84
2022/07/23 10:52:15;;;;;;;0.98;0.30;;;23.50;99.90;;;;;;4975763;28;20031;-82
2022/07/23 10:54:45;;;;;;;1.15;0.30;;;23.10;99.90;;;;;;4974487;28;20027;-83
2022/07/23 10:57:12;;;;;;;0.57;0.20;;;23.00;99.90;;;;;;4992726;28;20027;-82
2022/07/23 11:00:00;;;;;;;5.18;0.25;;;23.30;99.90;;;;;;5007234;28;20046;-83
2022/07/23 11:02:27;;;;;;;0.93;0.20;;;23.70;99.90;;;;;;4991464;28;20031;-83
2022/07/23 11:04:53;;;;;;;0.70;0.20;;;23.70;99.90;;;;;;5006787;28;20544;-83
2022/07/23 11:07:19;;;;;;;1.25;0.20;;;23.90;99.90;;;;;;4989862;28;22331;-82
2022/07/23 11:09:48;;;;;;;0.52;0.20;;;24.20;99.90;;;;;;4969016;28;20034;-83
2022/07/23 11:12:14;;;;;;;2.38;0.30;;;24.30;99.90;;;;;;4988977;28;20042;-83
2022/07/23 11:15:04;;;;;;;1.05;0.30;;;23.90;99.90;;;;;;4973210;28;20135;-82
2022/07/23 11:17:31;;;;;;;1.98;0.30;;;23.50;99.90;;;;;;4989795;28;20042;-82
2022/07/23 11:20:09;;;;;;;0.55;0.28;;;23.80;99.90;;;;;;5004182;28;20143;-83
2022/07/23 11:22:44;;;;;;;0.52;0.20;;;23.70;99.90;;;;;;4990269;28;20045;-82
2022/07/23 11:25:11;;;;;;;0.90;0.30;;;24.20;99.90;;;;;;4990119;28;20120;-83
2022/07/23 11:27:41;;;;;;;0.77;0.30;;;24.20;99.90;;;;;;4989508;28;20029;-82
2022/07/23 11:30:09;;;;;;;1.20;0.30;;;24.50;99.90;;;;;;4989754;28;20033;-82
2022/07/23 11:32:40;;;;;;;1.13;0.30;;;23.90;99.90;;;;;;5004543;28;21131;-83
2022/07/23 11:35:43;;;;;;;1.20;0.30;;;23.90;99.90;;;;;;4989234;28;20474;-82
2022/07/23 11:38:14;;;;;;;0.73;0.20;;;23.60;99.90;;;;;;4954617;28;20061;-83
2022/07/23 11:40:40;;;;;;;1.40;0.30;;;23.70;99.90;;;;;;4937765;28;20503;-83
2022/07/23 11:43:08;;;;;;;1.00;0.30;;;23.70;99.90;;;;;;4954675;28;20093;-81
2022/07/23 11:45:39;;;;;;;1.10;0.20;;;23.70;99.90;;;;;;4955684;28;20491;-82
2022/07/23 11:48:07;;;;;;;0.60;0.30;;;24.70;99.90;;;;;;4920818;28;20053;-83
2022/07/23 11:50:33;;;;;;;1.15;0.20;;;24.70;99.90;;;;;;4936920;28;20074;-83
2022/07/23 11:52:59;;;;;;;1.83;0.30;;;24.90;99.90;;;;;;4922087;28;20212;-82
2022/07/23 11:55:25;;;;;;;1.73;0.30;;;24.80;99.90;;;;;;4956746;28;20030;-82
2022/07/23 11:57:52;;;;;;;0.60;0.30;;;25.40;99.90;;;;;;4937667;28;20069;-84
2022/07/23 12:00:21;;;;;;;1.45;0.40;;;25.30;99.90;;;;;;4957310;28;20044;-84
2022/07/23 12:02:50;;;;;;;1.10;0.30;;;23.80;99.90;;;;;;4954593;28;20471;-83
2022/07/23 12:05:18;;;;;;;1.27;0.30;;;23.60;99.90;;;;;;4956503;28;20205;-83
2022/07/23 12:07:49;;;;;;;0.50;0.20;;;23.50;99.90;;;;;;4955127;28;22917;-84
2022/07/23 12:10:23;;;;;;;0.60;0.20;;;24.20;99.90;;;;;;4956448;28;20037;-83
2022/07/23 12:12:55;;;;;;;2.20;0.40;;;25.00;99.90;;;;;;4982190;28;20576;-83
2022/07/23 12:15:23;;;;;;;0.80;0.30;;;24.70;99.90;;;;;;5007011;28;20048;-83
2022/07/23 12:17:50;;;;;;;1.08;0.30;;;24.40;99.90;;;;;;4989956;28;20396;-84
2022/07/23 12:20:20;;;;;;;1.30;0.40;;;24.60;99.90;;;;;;4989494;28;20600;-83
2022/07/23 12:22:48;;;;;;;1.85;0.40;;;24.00;99.90;;;;;;4973018;28;20116;-84
2022/07/23 12:25:17;;;;;;;1.83;0.50;;;23.50;99.90;;;;;;4990703;28;20037;-84
2022/07/23 12:27:44;;;;;;;0.45;0.20;;;23.30;99.90;;;;;;4988875;28;20066;-83
2022/07/23 12:30:18;;;;;;;0.40;0.20;;;23.40;99.90;;;;;;4987407;28;20488;-84
2022/07/23 12:32:46;;;;;;;0.40;0.20;;;23.70;99.90;;;;;;5004033;28;20038;-84
2022/07/23 12:35:11;;;;;;;0.93;0.30;;;23.70;99.90;;;;;;4989361;28;20033;-83
2022/07/23 12:37:42;;;;;;;1.55;0.30;;;23.70;99.90;;;;;;4988782;28;20528;-83
2022/07/23 12:40:26;;;;;;;0.85;0.30;;;24.20;99.90;;;;;;4986992;28;20126;-83
2022/07/23 12:43:00;;;;;;;0.70;0.30;;;24.90;99.90;;;;;;4986792;28;20034;-83
2022/07/23 12:45:27;;;;;;;0.98;0.30;;;24.90;99.90;;;;;;4990247;28;20034;-82
2022/07/23 12:48:06;;;;;;;1.33;0.47;;;24.90;99.90;;;;;;4989074;28;20697;-83
2022/07/23 12:50:52;;;;;;;;;;;24.50;99.90;;;;;;5005425;28;20034;-82
2022/07/23 12:53:26;;;;;;;1.10;0.47;;;24.60;99.90;;;;;;5004647;28;19949;-83
2022/07/23 12:56:01;;;;;;;0.68;0.40;;;24.20;99.90;;;;;;4986657;28;20133;-82
2022/07/23 12:58:43;;;;;;;0.95;0.30;;;24.30;99.90;;;;;;4987653;28;20378;-82